sensor_id;sensor_type;location;lat;lon;timestamp;P1;durP1;ratioP1;P2;durP2;ratioP2
79202;SDS011;68630;42.748;23.278;2023-08-07T00:02:17;2.83;;;1.77;;
79202;SDS011;68630;42.748;23.278;2023-08-07T00:04:45;2.52;;;1.77;;
79202;SDS011;68630;42.748;23.278;2023-08-07T00:07:12;3.83;;;2.08;;
79202;SDS011;68630;42.748;23.278;2023-08-07T00:09:40;3.42;;;1.87;;
79202;SDS011;68630;42.748;23.278;2023-08-07T00:12:08;4.03;;;2.20;;
79202;SDS011;68630;42.748;23.278;2023-08-07T00:14:37;9.03;;;2.33;;
79202;SDS011;68630;42.748;23.278;2023-08-07T00:19:31;6.05;;;2.60;;
79202;SDS011;68630;42.748;23.278;2023-08-07T00:21:59;2.45;;;2.05;;
79202;SDS011;68630;42.748;23.278;2023-08-07T00:24:26;3.17;;;2.15;;
79202;SDS011;68630;42.748;23.278;2023-08-07T00:26:54;2.92;;;2.08;;
79202;SDS011;68630;42.748;23.278;2023-08-07T00:29:22;8.40;;;2.10;;
79202;SDS011;68630;42.748;23.278;2023-08-07T00:31:49;6.83;;;2.12;;
79202;SDS011;68630;42.748;23.278;2023-08-07T00:34:17;3.42;;;2.40;;
79202;SDS011;68630;42.748;23.278;2023-08-07T00:36:45;3.80;;;2.45;;
79202;SDS011;68630;42.748;23.278;2023-08-07T00:39:12;3.02;;;2.40;;
79202;SDS011;68630;42.748;23.278;2023-08-07T00:44:06;3.35;;;2.30;;
79202;SDS011;68630;42.748;23.278;2023-08-07T00:46:34;8.23;;;2.67;;
79202;SDS011;68630;42.748;23.278;2023-08-07T00:49:02;3.95;;;2.87;;
79202;SDS011;68630;42.748;23.278;2023-08-07T00:51:30;8.78;;;3.37;;
79202;SDS011;68630;42.748;23.278;2023-08-07T00:53:58;8.65;;;3.40;;
79202;SDS011;68630;42.748;23.278;2023-08-07T00:56:27;5.30;;;3.65;;
79202;SDS011;68630;42.748;23.278;2023-08-07T00:58:56;5.12;;;3.35;;
79202;SDS011;68630;42.748;23.278;2023-08-07T01:01:26;5.58;;;3.58;;
79202;SDS011;68630;42.748;23.278;2023-08-07T01:03:54;5.58;;;3.35;;
79202;SDS011;68630;42.748;23.278;2023-08-07T01:06:22;5.72;;;3.47;;
79202;SDS011;68630;42.748;23.278;2023-08-07T01:08:50;4.33;;;3.67;;
79202;SDS011;68630;42.748;23.278;2023-08-07T01:11:22;5.37;;;3.60;;
79202;SDS011;68630;42.748;23.278;2023-08-07T01:14:13;5.72;;;3.83;;
79202;SDS011;68630;42.748;23.278;2023-08-07T01:16:48;4.10;;;3.62;;
79202;SDS011;68630;42.748;23.278;2023-08-07T01:19:27;6.58;;;3.65;;
79202;SDS011;68630;42.748;23.278;2023-08-07T01:24:46;4.37;;;3.77;;
79202;SDS011;68630;42.748;23.278;2023-08-07T01:32:43;7.17;;;4.10;;
79202;SDS011;68630;42.748;23.278;2023-08-07T01:35:27;5.05;;;4.10;;
79202;SDS011;68630;42.748;23.278;2023-08-07T01:37:56;6.10;;;3.92;;
79202;SDS011;68630;42.748;23.278;2023-08-07T01:40:25;6.67;;;4.60;;
79202;SDS011;68630;42.748;23.278;2023-08-07T01:42:54;6.00;;;4.53;;
79202;SDS011;68630;42.748;23.278;2023-08-07T01:45:27;5.22;;;4.40;;
79202;SDS011;68630;42.748;23.278;2023-08-07T01:47:51;8.78;;;4.30;;
79202;SDS011;68630;42.748;23.278;2023-08-07T01:50:19;5.87;;;4.97;;
79202;SDS011;68630;42.748;23.278;2023-08-07T01:52:48;6.33;;;4.75;;
79202;SDS011;68630;42.748;23.278;2023-08-07T01:55:16;5.30;;;4.00;;
79202;SDS011;68630;42.748;23.278;2023-08-07T01:57:45;8.10;;;3.98;;
79202;SDS011;68630;42.748;23.278;2023-08-07T02:00:12;4.80;;;3.70;;
79202;SDS011;68630;42.748;23.278;2023-08-07T02:02:40;5.45;;;4.42;;
79202;SDS011;68630;42.748;23.278;2023-08-07T02:05:08;6.70;;;4.33;;
79202;SDS011;68630;42.748;23.278;2023-08-07T02:07:35;8.95;;;4.00;;
79202;SDS011;68630;42.748;23.278;2023-08-07T02:12:30;8.38;;;4.33;;
79202;SDS011;68630;42.748;23.278;2023-08-07T02:14:58;4.70;;;3.83;;
79202;SDS011;68630;42.748;23.278;2023-08-07T02:17:30;6.95;;;4.92;;
79202;SDS011;68630;42.748;23.278;2023-08-07T02:19:59;6.97;;;4.95;;
79202;SDS011;68630;42.748;23.278;2023-08-07T02:22:27;5.33;;;4.45;;
79202;SDS011;68630;42.748;23.278;2023-08-07T02:24:54;6.50;;;5.37;;
79202;SDS011;68630;42.748;23.278;2023-08-07T02:27:22;7.10;;;5.45;;
79202;SDS011;68630;42.748;23.278;2023-08-07T02:29:49;8.93;;;5.25;;
79202;SDS011;68630;42.748;23.278;2023-08-07T02:32:17;8.05;;;6.25;;
79202;SDS011;68630;42.748;23.278;2023-08-07T02:34:45;6.90;;;5.60;;
79202;SDS011;68630;42.748;23.278;2023-08-07T02:37:12;7.12;;;5.95;;
79202;SDS011;68630;42.748;23.278;2023-08-07T02:39:40;12.53;;;5.80;;
79202;SDS011;68630;42.748;23.278;2023-08-07T02:42:08;11.65;;;6.33;;
79202;SDS011;68630;42.748;23.278;2023-08-07T02:44:38;7.62;;;6.05;;
79202;SDS011;68630;42.748;23.278;2023-08-07T02:47:06;11.43;;;6.65;;
79202;SDS011;68630;42.748;23.278;2023-08-07T02:49:34;8.50;;;5.45;;
79202;SDS011;68630;42.748;23.278;2023-08-07T02:54:28;11.30;;;5.95;;
79202;SDS011;68630;42.748;23.278;2023-08-07T02:59:22;9.10;;;5.78;;
79202;SDS011;68630;42.748;23.278;2023-08-07T03:01:50;9.15;;;5.75;;
79202;SDS011;68630;42.748;23.278;2023-08-07T03:04:17;27.37;;;7.05;;
79202;SDS011;68630;42.748;23.278;2023-08-07T03:06:45;19.35;;;6.05;;
79202;SDS011;68630;42.748;23.278;2023-08-07T03:09:13;7.65;;;5.95;;
79202;SDS011;68630;42.748;23.278;2023-08-07T03:11:41;13.15;;;6.42;;
79202;SDS011;68630;42.748;23.278;2023-08-07T03:14:08;9.95;;;5.42;;
79202;SDS011;68630;42.748;23.278;2023-08-07T03:16:36;8.33;;;5.83;;
79202;SDS011;68630;42.748;23.278;2023-08-07T03:19:03;7.17;;;6.00;;
79202;SDS011;68630;42.748;23.278;2023-08-07T03:21:31;9.53;;;6.28;;
79202;SDS011;68630;42.748;23.278;2023-08-07T03:23:58;7.83;;;6.05;;
79202;SDS011;68630;42.748;23.278;2023-08-07T03:28:52;13.50;;;6.42;;
79202;SDS011;68630;42.748;23.278;2023-08-07T03:31:20;14.18;;;6.55;;
79202;SDS011;68630;42.748;23.278;2023-08-07T03:33:48;11.73;;;6.05;;
79202;SDS011;68630;42.748;23.278;2023-08-07T03:38:42;16.90;;;6.65;;
79202;SDS011;68630;42.748;23.278;2023-08-07T03:41:09;15.60;;;5.78;;
79202;SDS011;68630;42.748;23.278;2023-08-07T03:43:37;13.15;;;5.65;;
79202;SDS011;68630;42.748;23.278;2023-08-07T03:46:04;9.05;;;5.12;;
79202;SDS011;68630;42.748;23.278;2023-08-07T03:48:32;10.20;;;4.30;;
79202;SDS011;68630;42.748;23.278;2023-08-07T03:51:06;14.30;;;4.60;;
79202;SDS011;68630;42.748;23.278;2023-08-07T03:53:34;11.22;;;4.70;;
79202;SDS011;68630;42.748;23.278;2023-08-07T03:56:01;8.70;;;4.60;;
79202;SDS011;68630;42.748;23.278;2023-08-07T03:58:29;5.53;;;4.20;;
79202;SDS011;68630;42.748;23.278;2023-08-07T04:00:57;6.90;;;3.80;;
79202;SDS011;68630;42.748;23.278;2023-08-07T04:03:24;8.40;;;3.40;;
79202;SDS011;68630;42.748;23.278;2023-08-07T04:05:52;3.58;;;3.22;;
79202;SDS011;68630;42.748;23.278;2023-08-07T04:08:21;4.17;;;3.40;;
79202;SDS011;68630;42.748;23.278;2023-08-07T04:11:02;10.40;;;4.28;;
79202;SDS011;68630;42.748;23.278;2023-08-07T04:13:31;3.58;;;2.87;;
79202;SDS011;68630;42.748;23.278;2023-08-07T04:15:59;3.08;;;2.60;;
79202;SDS011;68630;42.748;23.278;2023-08-07T04:18:30;5.58;;;2.55;;
79202;SDS011;68630;42.748;23.278;2023-08-07T04:20:58;4.90;;;2.80;;
79202;SDS011;68630;42.748;23.278;2023-08-07T04:23:25;3.60;;;2.52;;
79202;SDS011;68630;42.748;23.278;2023-08-07T04:25:53;3.67;;;2.65;;
79202;SDS011;68630;42.748;23.278;2023-08-07T04:28:21;3.22;;;2.33;;
79202;SDS011;68630;42.748;23.278;2023-08-07T04:30:50;2.87;;;2.58;;
79202;SDS011;68630;42.748;23.278;2023-08-07T04:33:18;4.87;;;2.77;;
79202;SDS011;68630;42.748;23.278;2023-08-07T04:35:46;7.72;;;3.00;;
79202;SDS011;68630;42.748;23.278;2023-08-07T04:38:14;6.22;;;3.25;;
79202;SDS011;68630;42.748;23.278;2023-08-07T04:40:43;3.83;;;2.72;;
79202;SDS011;68630;42.748;23.278;2023-08-07T04:43:12;5.40;;;3.17;;
79202;SDS011;68630;42.748;23.278;2023-08-07T04:45:40;6.00;;;3.08;;
79202;SDS011;68630;42.748;23.278;2023-08-07T04:48:10;4.92;;;2.62;;
79202;SDS011;68630;42.748;23.278;2023-08-07T04:50:38;5.05;;;2.58;;
79202;SDS011;68630;42.748;23.278;2023-08-07T04:53:05;4.03;;;2.30;;
79202;SDS011;68630;42.748;23.278;2023-08-07T04:55:33;3.83;;;2.70;;
79202;SDS011;68630;42.748;23.278;2023-08-07T04:58:01;4.15;;;2.45;;
79202;SDS011;68630;42.748;23.278;2023-08-07T05:00:29;3.12;;;2.33;;
79202;SDS011;68630;42.748;23.278;2023-08-07T05:02:56;6.50;;;2.52;;
79202;SDS011;68630;42.748;23.278;2023-08-07T05:05:26;4.80;;;2.60;;
79202;SDS011;68630;42.748;23.278;2023-08-07T05:07:57;6.40;;;2.35;;
79202;SDS011;68630;42.748;23.278;2023-08-07T05:10:25;3.90;;;2.02;;
79202;SDS011;68630;42.748;23.278;2023-08-07T05:12:52;7.03;;;2.47;;
79202;SDS011;68630;42.748;23.278;2023-08-07T05:15:23;4.97;;;2.60;;
79202;SDS011;68630;42.748;23.278;2023-08-07T05:17:53;4.72;;;2.30;;
79202;SDS011;68630;42.748;23.278;2023-08-07T05:20:20;2.52;;;2.00;;
79202;SDS011;68630;42.748;23.278;2023-08-07T05:22:48;5.17;;;1.90;;
79202;SDS011;68630;42.748;23.278;2023-08-07T05:25:16;3.92;;;2.37;;
79202;SDS011;68630;42.748;23.278;2023-08-07T05:27:52;3.35;;;2.40;;
79202;SDS011;68630;42.748;23.278;2023-08-07T05:30:16;2.00;;;1.80;;
79202;SDS011;68630;42.748;23.278;2023-08-07T05:32:43;2.80;;;1.95;;
79202;SDS011;68630;42.748;23.278;2023-08-07T05:35:11;1.85;;;1.72;;
79202;SDS011;68630;42.748;23.278;2023-08-07T05:37:38;3.47;;;1.60;;
79202;SDS011;68630;42.748;23.278;2023-08-07T05:40:06;1.67;;;1.50;;
79202;SDS011;68630;42.748;23.278;2023-08-07T05:42:35;1.85;;;1.65;;
79202;SDS011;68630;42.748;23.278;2023-08-07T05:45:02;5.37;;;1.70;;
79202;SDS011;68630;42.748;23.278;2023-08-07T05:47:32;6.05;;;1.57;;
79202;SDS011;68630;42.748;23.278;2023-08-07T05:49:59;4.67;;;2.05;;
79202;SDS011;68630;42.748;23.278;2023-08-07T05:52:27;1.80;;;1.30;;
79202;SDS011;68630;42.748;23.278;2023-08-07T05:54:55;3.45;;;1.77;;
79202;SDS011;68630;42.748;23.278;2023-08-07T05:57:22;4.72;;;1.67;;
79202;SDS011;68630;42.748;23.278;2023-08-07T05:59:50;2.33;;;1.55;;
79202;SDS011;68630;42.748;23.278;2023-08-07T06:02:17;4.87;;;1.92;;
79202;SDS011;68630;42.748;23.278;2023-08-07T06:04:45;3.15;;;1.70;;
79202;SDS011;68630;42.748;23.278;2023-08-07T06:07:14;7.03;;;1.70;;
79202;SDS011;68630;42.748;23.278;2023-08-07T06:09:41;2.90;;;1.90;;
79202;SDS011;68630;42.748;23.278;2023-08-07T06:12:09;2.80;;;2.10;;
79202;SDS011;68630;42.748;23.278;2023-08-07T06:14:37;5.25;;;1.72;;
79202;SDS011;68630;42.748;23.278;2023-08-07T06:17:04;2.12;;;1.87;;
79202;SDS011;68630;42.748;23.278;2023-08-07T06:19:32;1.75;;;1.47;;
79202;SDS011;68630;42.748;23.278;2023-08-07T06:22:00;2.33;;;1.77;;
79202;SDS011;68630;42.748;23.278;2023-08-07T06:24:27;3.22;;;1.57;;
79202;SDS011;68630;42.748;23.278;2023-08-07T06:26:55;2.62;;;1.70;;
79202;SDS011;68630;42.748;23.278;2023-08-07T06:29:22;1.80;;;1.60;;
79202;SDS011;68630;42.748;23.278;2023-08-07T06:31:50;2.90;;;1.40;;
79202;SDS011;68630;42.748;23.278;2023-08-07T06:34:18;4.15;;;1.40;;
79202;SDS011;68630;42.748;23.278;2023-08-07T06:36:46;1.70;;;1.30;;
79202;SDS011;68630;42.748;23.278;2023-08-07T06:39:14;2.27;;;2.08;;
79202;SDS011;68630;42.748;23.278;2023-08-07T06:41:41;4.72;;;1.90;;
79202;SDS011;68630;42.748;23.278;2023-08-07T06:44:21;1.42;;;1.32;;
79202;SDS011;68630;42.748;23.278;2023-08-07T06:46:48;1.42;;;1.30;;
79202;SDS011;68630;42.748;23.278;2023-08-07T06:49:16;2.08;;;1.20;;
79202;SDS011;68630;42.748;23.278;2023-08-07T06:51:46;1.25;;;1.15;;
79202;SDS011;68630;42.748;23.278;2023-08-07T06:54:12;4.35;;;1.20;;
79202;SDS011;68630;42.748;23.278;2023-08-07T06:56:40;1.57;;;0.80;;
79202;SDS011;68630;42.748;23.278;2023-08-07T06:59:08;4.12;;;1.10;;
79202;SDS011;68630;42.748;23.278;2023-08-07T07:01:36;3.95;;;1.10;;
79202;SDS011;68630;42.748;23.278;2023-08-07T07:04:05;3.02;;;1.30;;
79202;SDS011;68630;42.748;23.278;2023-08-07T07:06:33;4.12;;;1.10;;
79202;SDS011;68630;42.748;23.278;2023-08-07T07:09:00;2.33;;;1.15;;
79202;SDS011;68630;42.748;23.278;2023-08-07T07:11:28;4.10;;;1.10;;
79202;SDS011;68630;42.748;23.278;2023-08-07T07:13:55;1.82;;;1.32;;
79202;SDS011;68630;42.748;23.278;2023-08-07T07:16:24;4.92;;;1.30;;
79202;SDS011;68630;42.748;23.278;2023-08-07T07:18:52;2.98;;;1.10;;
79202;SDS011;68630;42.748;23.278;2023-08-07T07:21:21;1.82;;;1.10;;
79202;SDS011;68630;42.748;23.278;2023-08-07T07:23:49;2.17;;;1.00;;
79202;SDS011;68630;42.748;23.278;2023-08-07T07:26:16;1.10;;;1.00;;
79202;SDS011;68630;42.748;23.278;2023-08-07T07:28:44;3.22;;;1.20;;
79202;SDS011;68630;42.748;23.278;2023-08-07T07:31:12;1.37;;;1.00;;
79202;SDS011;68630;42.748;23.278;2023-08-07T07:33:40;1.02;;;0.90;;
79202;SDS011;68630;42.748;23.278;2023-08-07T07:36:07;1.12;;;0.90;;
79202;SDS011;68630;42.748;23.278;2023-08-07T07:38:46;1.10;;;1.00;;
79202;SDS011;68630;42.748;23.278;2023-08-07T07:41:14;1.15;;;0.80;;
79202;SDS011;68630;42.748;23.278;2023-08-07T07:43:46;0.80;;;0.80;;
79202;SDS011;68630;42.748;23.278;2023-08-07T07:46:13;1.42;;;0.95;;
79202;SDS011;68630;42.748;23.278;2023-08-07T07:48:41;1.85;;;0.93;;
79202;SDS011;68630;42.748;23.278;2023-08-07T07:51:08;3.85;;;1.02;;
79202;SDS011;68630;42.748;23.278;2023-08-07T07:53:36;2.70;;;0.90;;
79202;SDS011;68630;42.748;23.278;2023-08-07T07:56:04;4.33;;;0.90;;
79202;SDS011;68630;42.748;23.278;2023-08-07T07:58:31;4.45;;;0.90;;
79202;SDS011;68630;42.748;23.278;2023-08-07T08:00:59;1.55;;;0.82;;
79202;SDS011;68630;42.748;23.278;2023-08-07T08:03:26;3.85;;;0.93;;
79202;SDS011;68630;42.748;23.278;2023-08-07T08:05:54;3.42;;;0.80;;
79202;SDS011;68630;42.748;23.278;2023-08-07T08:08:22;0.98;;;0.85;;
79202;SDS011;68630;42.748;23.278;2023-08-07T08:11:04;0.60;;;0.60;;
79202;SDS011;68630;42.748;23.278;2023-08-07T08:13:19;1.42;;;0.60;;
79202;SDS011;68630;42.748;23.278;2023-08-07T08:15:48;3.33;;;0.80;;
79202;SDS011;68630;42.748;23.278;2023-08-07T08:18:15;3.55;;;0.80;;
79202;SDS011;68630;42.748;23.278;2023-08-07T08:20:43;1.02;;;0.62;;
79202;SDS011;68630;42.748;23.278;2023-08-07T08:23:10;4.65;;;0.98;;
79202;SDS011;68630;42.748;23.278;2023-08-07T08:25:38;6.10;;;0.70;;
79202;SDS011;68630;42.748;23.278;2023-08-07T08:28:06;6.00;;;1.02;;
79202;SDS011;68630;42.748;23.278;2023-08-07T08:30:34;1.85;;;0.80;;
79202;SDS011;68630;42.748;23.278;2023-08-07T08:33:01;2.35;;;0.70;;
79202;SDS011;68630;42.748;23.278;2023-08-07T08:35:30;0.95;;;0.82;;
79202;SDS011;68630;42.748;23.278;2023-08-07T08:37:58;4.28;;;1.10;;
79202;SDS011;68630;42.748;23.278;2023-08-07T08:40:25;6.42;;;0.90;;
79202;SDS011;68630;42.748;23.278;2023-08-07T08:42:53;4.87;;;0.80;;
79202;SDS011;68630;42.748;23.278;2023-08-07T08:45:26;2.92;;;0.70;;
79202;SDS011;68630;42.748;23.278;2023-08-07T08:47:57;3.72;;;0.90;;
79202;SDS011;68630;42.748;23.278;2023-08-07T08:50:25;2.58;;;0.80;;
79202;SDS011;68630;42.748;23.278;2023-08-07T08:52:55;6.85;;;1.27;;
79202;SDS011;68630;42.748;23.278;2023-08-07T08:55:23;0.95;;;0.88;;
79202;SDS011;68630;42.748;23.278;2023-08-07T08:57:52;1.75;;;1.17;;
79202;SDS011;68630;42.748;23.278;2023-08-07T09:00:20;2.42;;;0.90;;
79202;SDS011;68630;42.748;23.278;2023-08-07T09:02:51;2.52;;;0.80;;
79202;SDS011;68630;42.748;23.278;2023-08-07T09:05:19;3.37;;;0.90;;
79202;SDS011;68630;42.748;23.278;2023-08-07T09:07:48;2.70;;;0.50;;
79202;SDS011;68630;42.748;23.278;2023-08-07T09:10:16;0.93;;;0.72;;
79202;SDS011;68630;42.748;23.278;2023-08-07T09:13:03;1.52;;;0.80;;
79202;SDS011;68630;42.748;23.278;2023-08-07T09:15:23;3.27;;;0.68;;
79202;SDS011;68630;42.748;23.278;2023-08-07T09:17:53;2.75;;;0.75;;
79202;SDS011;68630;42.748;23.278;2023-08-07T09:20:21;4.53;;;0.70;;
79202;SDS011;68630;42.748;23.278;2023-08-07T09:22:49;1.32;;;0.60;;
79202;SDS011;68630;42.748;23.278;2023-08-07T09:25:32;2.87;;;0.90;;
79202;SDS011;68630;42.748;23.278;2023-08-07T09:28:04;4.87;;;0.80;;
79202;SDS011;68630;42.748;23.278;2023-08-07T09:30:32;3.90;;;0.70;;
79202;SDS011;68630;42.748;23.278;2023-08-07T09:33:03;2.02;;;0.85;;
79202;SDS011;68630;42.748;23.278;2023-08-07T09:35:31;3.45;;;0.68;;
79202;SDS011;68630;42.748;23.278;2023-08-07T09:37:59;0.98;;;0.70;;
79202;SDS011;68630;42.748;23.278;2023-08-07T09:40:29;3.42;;;0.90;;
79202;SDS011;68630;42.748;23.278;2023-08-07T09:42:57;0.95;;;0.70;;
79202;SDS011;68630;42.748;23.278;2023-08-07T09:45:26;1.42;;;0.90;;
79202;SDS011;68630;42.748;23.278;2023-08-07T09:47:59;6.83;;;1.00;;
79202;SDS011;68630;42.748;23.278;2023-08-07T09:50:28;6.45;;;0.90;;
79202;SDS011;68630;42.748;23.278;2023-08-07T09:52:57;1.85;;;0.80;;
79202;SDS011;68630;42.748;23.278;2023-08-07T09:55:25;4.47;;;1.12;;
79202;SDS011;68630;42.748;23.278;2023-08-07T09:57:53;3.42;;;0.98;;
79202;SDS011;68630;42.748;23.278;2023-08-07T10:00:21;2.08;;;0.90;;
79202;SDS011;68630;42.748;23.278;2023-08-07T10:02:49;2.85;;;0.93;;
79202;SDS011;68630;42.748;23.278;2023-08-07T10:05:18;2.58;;;0.80;;
79202;SDS011;68630;42.748;23.278;2023-08-07T10:07:46;0.80;;;0.80;;
79202;SDS011;68630;42.748;23.278;2023-08-07T10:10:14;1.70;;;0.93;;
79202;SDS011;68630;42.748;23.278;2023-08-07T10:12:42;4.58;;;0.95;;
79202;SDS011;68630;42.748;23.278;2023-08-07T10:15:11;3.83;;;0.88;;
79202;SDS011;68630;42.748;23.278;2023-08-07T10:17:39;2.70;;;1.20;;
79202;SDS011;68630;42.748;23.278;2023-08-07T10:20:09;4.47;;;1.00;;
79202;SDS011;68630;42.748;23.278;2023-08-07T10:22:38;6.70;;;1.00;;
79202;SDS011;68630;42.748;23.278;2023-08-07T10:25:07;1.50;;;0.90;;
79202;SDS011;68630;42.748;23.278;2023-08-07T10:27:36;6.55;;;0.98;;
79202;SDS011;68630;42.748;23.278;2023-08-07T10:30:06;0.93;;;0.80;;
79202;SDS011;68630;42.748;23.278;2023-08-07T10:32:37;1.20;;;0.90;;
79202;SDS011;68630;42.748;23.278;2023-08-07T10:35:06;2.70;;;1.00;;
79202;SDS011;68630;42.748;23.278;2023-08-07T10:37:41;3.62;;;1.00;;
79202;SDS011;68630;42.748;23.278;2023-08-07T10:40:16;5.00;;;1.10;;
79202;SDS011;68630;42.748;23.278;2023-08-07T10:45:25;3.25;;;1.40;;
79202;SDS011;68630;42.748;23.278;2023-08-07T10:47:57;1.60;;;1.12;;
79202;SDS011;68630;42.748;23.278;2023-08-07T10:50:29;6.90;;;1.20;;
79202;SDS011;68630;42.748;23.278;2023-08-07T10:53:02;7.08;;;1.47;;
79202;SDS011;68630;42.748;23.278;2023-08-07T10:55:45;2.02;;;1.20;;
79202;SDS011;68630;42.748;23.278;2023-08-07T10:58:25;2.15;;;1.10;;
79202;SDS011;68630;42.748;23.278;2023-08-07T11:04:05;1.45;;;1.30;;
79202;SDS011;68630;42.748;23.278;2023-08-07T11:06:31;3.37;;;1.20;;
79202;SDS011;68630;42.748;23.278;2023-08-07T11:09:01;3.12;;;1.32;;
79202;SDS011;68630;42.748;23.278;2023-08-07T11:11:36;3.33;;;1.40;;
79202;SDS011;68630;42.748;23.278;2023-08-07T11:14:07;2.98;;;1.30;;
79202;SDS011;68630;42.748;23.278;2023-08-07T11:16:35;3.40;;;1.30;;
79202;SDS011;68630;42.748;23.278;2023-08-07T11:19:03;3.60;;;1.27;;
79202;SDS011;68630;42.748;23.278;2023-08-07T11:21:32;6.80;;;1.10;;
79202;SDS011;68630;42.748;23.278;2023-08-07T11:24:00;3.58;;;1.17;;
79202;SDS011;68630;42.748;23.278;2023-08-07T11:26:28;2.45;;;1.40;;
79202;SDS011;68630;42.748;23.278;2023-08-07T11:28:57;3.60;;;1.50;;
79202;SDS011;68630;42.748;23.278;2023-08-07T11:31:25;4.70;;;1.40;;
79202;SDS011;68630;42.748;23.278;2023-08-07T11:33:57;2.00;;;1.37;;
79202;SDS011;68630;42.748;23.278;2023-08-07T11:36:24;1.37;;;1.07;;
79202;SDS011;68630;42.748;23.278;2023-08-07T11:38:51;4.00;;;1.20;;
79202;SDS011;68630;42.748;23.278;2023-08-07T11:41:19;3.92;;;1.10;;
79202;SDS011;68630;42.748;23.278;2023-08-07T11:43:47;1.72;;;1.30;;
79202;SDS011;68630;42.748;23.278;2023-08-07T11:46:15;3.60;;;1.37;;
79202;SDS011;68630;42.748;23.278;2023-08-07T11:48:43;5.28;;;1.37;;
79202;SDS011;68630;42.748;23.278;2023-08-07T11:51:11;3.55;;;1.30;;
79202;SDS011;68630;42.748;23.278;2023-08-07T11:53:39;7.33;;;1.40;;
79202;SDS011;68630;42.748;23.278;2023-08-07T11:56:08;2.95;;;1.22;;
79202;SDS011;68630;42.748;23.278;2023-08-07T11:58:42;2.02;;;1.32;;
79202;SDS011;68630;42.748;23.278;2023-08-07T12:01:21;1.60;;;1.22;;
79202;SDS011;68630;42.748;23.278;2023-08-07T12:03:57;3.98;;;1.50;;
79202;SDS011;68630;42.748;23.278;2023-08-07T12:06:35;5.40;;;1.55;;
79202;SDS011;68630;42.748;23.278;2023-08-07T12:09:08;5.40;;;1.22;;
79202;SDS011;68630;42.748;23.278;2023-08-07T12:11:38;2.12;;;1.40;;
79202;SDS011;68630;42.748;23.278;2023-08-07T12:14:06;2.25;;;1.40;;
79202;SDS011;68630;42.748;23.278;2023-08-07T12:16:34;1.60;;;1.32;;
79202;SDS011;68630;42.748;23.278;2023-08-07T12:19:02;3.65;;;1.32;;
79202;SDS011;68630;42.748;23.278;2023-08-07T12:21:31;4.42;;;1.47;;
79202;SDS011;68630;42.748;23.278;2023-08-07T12:23:59;2.67;;;1.40;;
79202;SDS011;68630;42.748;23.278;2023-08-07T12:26:27;3.65;;;1.27;;
79202;SDS011;68630;42.748;23.278;2023-08-07T12:28:54;2.02;;;1.50;;
79202;SDS011;68630;42.748;23.278;2023-08-07T12:31:22;1.80;;;1.32;;
79202;SDS011;68630;42.748;23.278;2023-08-07T12:33:49;3.08;;;1.37;;
79202;SDS011;68630;42.748;23.278;2023-08-07T12:36:17;12.18;;;1.70;;
79202;SDS011;68630;42.748;23.278;2023-08-07T12:38:44;7.92;;;1.75;;
79202;SDS011;68630;42.748;23.278;2023-08-07T12:41:12;10.45;;;1.57;;
79202;SDS011;68630;42.748;23.278;2023-08-07T12:43:41;4.83;;;1.40;;
79202;SDS011;68630;42.748;23.278;2023-08-07T12:46:10;10.23;;;1.70;;
79202;SDS011;68630;42.748;23.278;2023-08-07T12:48:37;1.90;;;1.40;;
79202;SDS011;68630;42.748;23.278;2023-08-07T12:51:05;9.40;;;1.45;;
79202;SDS011;68630;42.748;23.278;2023-08-07T12:53:33;3.27;;;1.40;;
79202;SDS011;68630;42.748;23.278;2023-08-07T12:56:01;5.03;;;1.80;;
79202;SDS011;68630;42.748;23.278;2023-08-07T12:58:30;1.57;;;1.30;;
79202;SDS011;68630;42.748;23.278;2023-08-07T13:00:58;2.72;;;1.30;;
79202;SDS011;68630;42.748;23.278;2023-08-07T13:03:25;5.78;;;1.35;;
79202;SDS011;68630;42.748;23.278;2023-08-07T13:05:53;5.95;;;1.42;;
79202;SDS011;68630;42.748;23.278;2023-08-07T13:08:20;6.20;;;1.50;;
79202;SDS011;68630;42.748;23.278;2023-08-07T13:10:48;2.15;;;1.47;;
79202;SDS011;68630;42.748;23.278;2023-08-07T13:13:15;12.98;;;1.50;;
79202;SDS011;68630;42.748;23.278;2023-08-07T13:15:43;4.03;;;1.30;;
79202;SDS011;68630;42.748;23.278;2023-08-07T13:18:10;1.50;;;1.15;;
79202;SDS011;68630;42.748;23.278;2023-08-07T13:20:39;4.17;;;1.70;;
79202;SDS011;68630;42.748;23.278;2023-08-07T13:23:07;2.30;;;1.45;;
79202;SDS011;68630;42.748;23.278;2023-08-07T13:25:35;4.15;;;1.52;;
79202;SDS011;68630;42.748;23.278;2023-08-07T13:28:02;5.50;;;1.20;;
79202;SDS011;68630;42.748;23.278;2023-08-07T13:30:36;3.70;;;1.40;;
79202;SDS011;68630;42.748;23.278;2023-08-07T13:33:00;2.35;;;1.55;;
79202;SDS011;68630;42.748;23.278;2023-08-07T13:35:28;4.08;;;1.60;;
79202;SDS011;68630;42.748;23.278;2023-08-07T13:37:56;2.12;;;1.50;;
79202;SDS011;68630;42.748;23.278;2023-08-07T13:40:24;7.17;;;1.57;;
79202;SDS011;68630;42.748;23.278;2023-08-07T13:42:51;1.45;;;1.27;;
79202;SDS011;68630;42.748;23.278;2023-08-07T13:45:19;1.60;;;1.40;;
79202;SDS011;68630;42.748;23.278;2023-08-07T13:47:46;3.30;;;1.60;;
79202;SDS011;68630;42.748;23.278;2023-08-07T13:50:14;2.60;;;1.42;;
79202;SDS011;68630;42.748;23.278;2023-08-07T13:52:41;3.58;;;1.60;;
79202;SDS011;68630;42.748;23.278;2023-08-07T13:55:09;6.05;;;1.70;;
79202;SDS011;68630;42.748;23.278;2023-08-07T13:57:37;2.85;;;1.57;;
79202;SDS011;68630;42.748;23.278;2023-08-07T14:00:04;8.03;;;1.40;;
79202;SDS011;68630;42.748;23.278;2023-08-07T14:02:34;5.87;;;1.50;;
79202;SDS011;68630;42.748;23.278;2023-08-07T14:05:01;6.20;;;1.40;;
79202;SDS011;68630;42.748;23.278;2023-08-07T14:07:29;2.62;;;1.70;;
79202;SDS011;68630;42.748;23.278;2023-08-07T14:09:57;2.98;;;1.52;;
79202;SDS011;68630;42.748;23.278;2023-08-07T14:12:24;4.72;;;1.90;;
79202;SDS011;68630;42.748;23.278;2023-08-07T14:14:52;3.08;;;1.35;;
79202;SDS011;68630;42.748;23.278;2023-08-07T14:17:21;3.80;;;1.32;;
79202;SDS011;68630;42.748;23.278;2023-08-07T14:19:48;8.13;;;1.80;;
79202;SDS011;68630;42.748;23.278;2023-08-07T14:22:16;8.88;;;1.50;;
79202;SDS011;68630;42.748;23.278;2023-08-07T14:24:43;4.62;;;1.60;;
79202;SDS011;68630;42.748;23.278;2023-08-07T14:27:11;4.50;;;1.70;;
79202;SDS011;68630;42.748;23.278;2023-08-07T14:29:38;4.17;;;1.27;;
79202;SDS011;68630;42.748;23.278;2023-08-07T14:32:06;3.27;;;1.40;;
79202;SDS011;68630;42.748;23.278;2023-08-07T14:34:33;4.60;;;1.40;;
79202;SDS011;68630;42.748;23.278;2023-08-07T14:37:03;7.58;;;1.37;;
79202;SDS011;68630;42.748;23.278;2023-08-07T14:39:31;4.90;;;1.67;;
79202;SDS011;68630;42.748;23.278;2023-08-07T14:42:02;8.53;;;1.50;;
79202;SDS011;68630;42.748;23.278;2023-08-07T14:44:34;3.20;;;1.77;;
79202;SDS011;68630;42.748;23.278;2023-08-07T14:46:58;2.15;;;1.50;;
79202;SDS011;68630;42.748;23.278;2023-08-07T14:49:26;3.98;;;1.57;;
79202;SDS011;68630;42.748;23.278;2023-08-07T14:52:01;7.33;;;1.80;;
79202;SDS011;68630;42.748;23.278;2023-08-07T14:54:39;2.17;;;1.80;;
79202;SDS011;68630;42.748;23.278;2023-08-07T14:57:08;3.17;;;2.47;;
79202;SDS011;68630;42.748;23.278;2023-08-07T14:59:40;5.12;;;1.42;;
79202;SDS011;68630;42.748;23.278;2023-08-07T15:02:15;2.02;;;1.32;;
79202;SDS011;68630;42.748;23.278;2023-08-07T15:04:44;4.12;;;1.95;;
79202;SDS011;68630;42.748;23.278;2023-08-07T15:07:14;6.37;;;1.82;;
79202;SDS011;68630;42.748;23.278;2023-08-07T15:09:42;3.20;;;1.77;;
79202;SDS011;68630;42.748;23.278;2023-08-07T15:12:10;3.30;;;1.62;;
79202;SDS011;68630;42.748;23.278;2023-08-07T15:14:41;5.83;;;1.57;;